sensor_id;sensor_type;location;lat;lon;timestamp;pressure;altitude;pressure_sealevel;temperature;humidity
64292;BME280;50628;51.008;13.658;2024-02-15T00:02:44;100019.06;;;9.33;100.00
64292;BME280;50628;51.008;13.658;2024-02-15T00:07:46;100019.84;;;9.46;100.00
64292;BME280;50628;51.008;13.658;2024-02-15T00:12:50;100020.78;;;9.45;100.00
64292;BME280;50628;51.008;13.658;2024-02-15T00:17:52;100026.19;;;9.42;100.00
64292;BME280;50628;51.008;13.658;2024-02-15T00:22:54;100024.22;;;9.46;100.00
64292;BME280;50628;51.008;13.658;2024-02-15T00:27:58;100020.66;;;9.47;100.00
64292;BME280;50628;51.008;13.658;2024-02-15T00:33:00;100018.69;;;9.50;100.00
64292;BME280;50628;51.008;13.658;2024-02-15T00:38:03;100016.09;;;9.50;100.00
64292;BME280;50628;51.008;13.658;2024-02-15T00:43:07;100012.94;;;9.58;100.00
64292;BME280;50628;51.008;13.658;2024-02-15T00:48:09;100018.66;;;9.63;100.00
64292;BME280;50628;51.008;13.658;2024-02-15T00:53:11;100018.97;;;9.59;100.00
64292;BME280;50628;51.008;13.658;2024-02-15T00:58:14;100011.91;;;9.61;100.00
64292;BME280;50628;51.008;13.658;2024-02-15T01:03:16;100022.28;;;9.61;100.00
64292;BME280;50628;51.008;13.658;2024-02-15T01:08:18;100017.47;;;9.67;100.00
64292;BME280;50628;51.008;13.658;2024-02-15T01:13:22;100016.47;;;9.81;100.00
64292;BME280;50628;51.008;13.658;2024-02-15T01:18:24;100013.63;;;9.73;100.00
64292;BME280;50628;51.008;13.658;2024-02-15T01:23:27;100011.78;;;9.62;100.00
64292;BME280;50628;51.008;13.658;2024-02-15T01:28:30;100008.84;;;9.67;100.00
64292;BME280;50628;51.008;13.658;2024-02-15T01:33:32;100014.59;;;9.59;100.00
64292;BME280;50628;51.008;13.658;2024-02-15T01:38:34;100017.59;;;9.66;100.00
64292;BME280;50628;51.008;13.658;2024-02-15T01:43:37;100015.91;;;9.65;100.00
64292;BME280;50628;51.008;13.658;2024-02-15T01:48:40;100009.16;;;9.62;100.00
64292;BME280;50628;51.008;13.658;2024-02-15T01:53:43;100005.16;;;9.58;100.00
64292;BME280;50628;51.008;13.658;2024-02-15T01:58:46;100004.19;;;9.59;100.00
64292;BME280;50628;51.008;13.658;2024-02-15T02:03:48;100000.31;;;9.65;100.00
64292;BME280;50628;51.008;13.658;2024-02-15T02:08:50;99989.72;;;9.68;100.00
64292;BME280;50628;51.008;13.658;2024-02-15T02:13:53;99984.31;;;9.71;100.00
64292;BME280;50628;51.008;13.658;2024-02-15T02:18:55;99994.38;;;9.75;100.00
64292;BME280;50628;51.008;13.658;2024-02-15T02:23:58;99997.28;;;9.71;100.00
64292;BME280;50628;51.008;13.658;2024-02-15T02:29:01;99985.84;;;9.73;100.00
64292;BME280;50628;51.008;13.658;2024-02-15T02:34:05;99991.84;;;9.63;100.00
64292;BME280;50628;51.008;13.658;2024-02-15T02:39:08;99994.44;;;9.63;100.00
64292;BME280;50628;51.008;13.658;2024-02-15T02:44:11;99994.53;;;9.61;100.00
64292;BME280;50628;51.008;13.658;2024-02-15T02:49:13;99993.25;;;9.67;100.00
64292;BME280;50628;51.008;13.658;2024-02-15T02:54:15;99995.91;;;9.78;100.00
64292;BME280;50628;51.008;13.658;2024-02-15T02:59:18;99987.78;;;9.83;100.00
64292;BME280;50628;51.008;13.658;2024-02-15T03:04:20;99996.66;;;9.91;100.00
64292;BME280;50628;51.008;13.658;2024-02-15T03:09:22;99990.31;;;9.95;100.00
64292;BME280;50628;51.008;13.658;2024-02-15T03:14:28;99983.44;;;9.94;100.00
64292;BME280;50628;51.008;13.658;2024-02-15T03:19:30;99983.91;;;10.00;100.00
64292;BME280;50628;51.008;13.658;2024-02-15T03:24:32;99981.69;;;10.06;100.00
64292;BME280;50628;51.008;13.658;2024-02-15T03:29:35;99977.31;;;10.07;100.00
64292;BME280;50628;51.008;13.658;2024-02-15T03:34:38;99988.06;;;10.02;100.00
64292;BME280;50628;51.008;13.658;2024-02-15T03:39:40;99984.16;;;10.08;100.00
64292;BME280;50628;51.008;13.658;2024-02-15T03:44:44;99976.16;;;10.11;100.00
64292;BME280;50628;51.008;13.658;2024-02-15T03:49:48;99987.81;;;10.05;100.00
64292;BME280;50628;51.008;13.658;2024-02-15T03:54:50;99993.50;;;10.10;100.00
64292;BME280;50628;51.008;13.658;2024-02-15T03:59:54;99988.69;;;10.17;100.00
64292;BME280;50628;51.008;13.658;2024-02-15T04:04:57;99992.09;;;10.17;100.00
64292;BME280;50628;51.008;13.658;2024-02-15T04:09:59;99993.56;;;10.22;100.00
64292;BME280;50628;51.008;13.658;2024-02-15T04:15:03;99998.75;;;10.22;100.00
64292;BME280;50628;51.008;13.658;2024-02-15T04:20:12;99996.63;;;10.27;100.00
64292;BME280;50628;51.008;13.658;2024-02-15T04:25:16;100000.34;;;10.35;100.00
64292;BME280;50628;51.008;13.658;2024-02-15T04:30:21;99997.03;;;10.33;100.00
64292;BME280;50628;51.008;13.658;2024-02-15T04:35:24;99999.28;;;10.38;100.00
64292;BME280;50628;51.008;13.658;2024-02-15T04:40:28;99994.31;;;10.35;100.00
64292;BME280;50628;51.008;13.658;2024-02-15T04:45:32;99996.09;;;10.34;100.00
64292;BME280;50628;51.008;13.658;2024-02-15T04:50:34;100002.94;;;10.35;100.00
64292;BME280;50628;51.008;13.658;2024-02-15T04:55:36;99993.63;;;10.44;100.00
64292;BME280;50628;51.008;13.658;2024-02-15T05:00:40;100007.22;;;10.36;100.00
64292;BME280;50628;51.008;13.658;2024-02-15T05:05:42;100008.75;;;10.39;100.00
64292;BME280;50628;51.008;13.658;2024-02-15T05:10:44;99998.94;;;10.43;100.00
64292;BME280;50628;51.008;13.658;2024-02-15T05:15:47;100004.75;;;10.46;100.00
64292;BME280;50628;51.008;13.658;2024-02-15T05:20:49;100009.47;;;10.52;100.00
64292;BME280;50628;51.008;13.658;2024-02-15T05:25:51;100012.06;;;10.52;100.00
64292;BME280;50628;51.008;13.658;2024-02-15T05:31:10;100006.41;;;10.47;100.00
64292;BME280;50628;51.008;13.658;2024-02-15T05:36:12;100009.22;;;10.55;100.00
64292;BME280;50628;51.008;13.658;2024-02-15T05:41:14;100020.25;;;10.59;100.00
64292;BME280;50628;51.008;13.658;2024-02-15T05:46:18;100013.50;;;10.56;100.00
64292;BME280;50628;51.008;13.658;2024-02-15T05:51:22;100001.22;;;10.58;100.00
64292;BME280;50628;51.008;13.658;2024-02-15T05:56:24;100014.09;;;10.60;100.00
64292;BME280;50628;51.008;13.658;2024-02-15T06:01:27;100020.97;;;10.61;100.00
64292;BME280;50628;51.008;13.658;2024-02-15T06:06:29;100023.44;;;10.63;100.00
64292;BME280;50628;51.008;13.658;2024-02-15T06:11:31;100032.94;;;10.64;100.00
64292;BME280;50628;51.008;13.658;2024-02-15T06:16:41;100034.47;;;10.66;100.00
64292;BME280;50628;51.008;13.658;2024-02-15T06:21:43;100050.09;;;10.66;100.00
64292;BME280;50628;51.008;13.658;2024-02-15T06:26:45;100052.69;;;10.66;100.00
64292;BME280;50628;51.008;13.658;2024-02-15T06:31:50;100053.84;;;10.73;100.00
64292;BME280;50628;51.008;13.658;2024-02-15T06:37:10;100059.19;;;10.72;100.00
64292;BME280;50628;51.008;13.658;2024-02-15T06:42:29;100068.19;;;10.79;100.00
64292;BME280;50628;51.008;13.658;2024-02-15T06:47:35;100058.38;;;10.71;100.00
64292;BME280;50628;51.008;13.658;2024-02-15T06:52:37;100062.13;;;10.78;100.00
64292;BME280;50628;51.008;13.658;2024-02-15T06:57:39;100063.19;;;10.76;100.00
64292;BME280;50628;51.008;13.658;2024-02-15T07:02:43;100056.00;;;10.79;100.00
64292;BME280;50628;51.008;13.658;2024-02-15T07:07:45;100051.97;;;10.75;100.00
64292;BME280;50628;51.008;13.658;2024-02-15T07:12:47;100058.75;;;10.89;100.00
64292;BME280;50628;51.008;13.658;2024-02-15T07:17:51;100058.25;;;11.07;100.00
64292;BME280;50628;51.008;13.658;2024-02-15T07:22:55;100048.44;;;10.99;100.00
64292;BME280;50628;51.008;13.658;2024-02-15T07:27:57;100045.34;;;11.05;100.00
64292;BME280;50628;51.008;13.658;2024-02-15T07:33:00;100054.47;;;11.11;100.00
64292;BME280;50628;51.008;13.658;2024-02-15T07:38:03;100058.59;;;11.13;100.00
64292;BME280;50628;51.008;13.658;2024-02-15T07:43:05;100050.53;;;11.27;100.00
64292;BME280;50628;51.008;13.658;2024-02-15T07:48:09;100062.16;;;11.35;100.00
64292;BME280;50628;51.008;13.658;2024-02-15T07:53:11;100064.03;;;11.33;100.00
64292;BME280;50628;51.008;13.658;2024-02-15T07:58:14;100055.03;;;11.37;100.00
64292;BME280;50628;51.008;13.658;2024-02-15T08:03:20;100060.81;;;11.52;100.00
64292;BME280;50628;51.008;13.658;2024-02-15T08:08:22;100051.69;;;11.57;100.00
64292;BME280;50628;51.008;13.658;2024-02-15T08:13:24;100056.22;;;11.76;100.00
64292;BME280;50628;51.008;13.658;2024-02-15T08:18:31;100041.53;;;11.86;100.00
64292;BME280;50628;51.008;13.658;2024-02-15T08:23:33;100037.25;;;11.85;100.00
64292;BME280;50628;51.008;13.658;2024-02-15T08:28:35;100028.25;;;11.89;100.00
64292;BME280;50628;51.008;13.658;2024-02-15T08:33:38;100028.72;;;11.83;100.00
64292;BME280;50628;51.008;13.658;2024-02-15T08:38:40;100031.69;;;11.90;100.00
64292;BME280;50628;51.008;13.658;2024-02-15T08:43:42;100039.34;;;12.03;100.00
64292;BME280;50628;51.008;13.658;2024-02-15T08:48:46;100033.94;;;12.16;100.00
64292;BME280;50628;51.008;13.658;2024-02-15T08:53:48;100040.50;;;12.31;100.00
64292;BME280;50628;51.008;13.658;2024-02-15T08:58:49;100037.19;;;12.50;100.00
64292;BME280;50628;51.008;13.658;2024-02-15T09:03:53;100035.66;;;12.47;100.00
64292;BME280;50628;51.008;13.658;2024-02-15T09:08:54;100030.88;;;12.52;100.00
64292;BME280;50628;51.008;13.658;2024-02-15T09:13:57;100042.75;;;12.66;100.00
64292;BME280;50628;51.008;13.658;2024-02-15T09:25:23;100041.19;;;12.85;100.00
64292;BME280;50628;51.008;13.658;2024-02-15T09:30:25;100031.38;;;12.98;100.00
64292;BME280;50628;51.008;13.658;2024-02-15T09:35:28;100037.84;;;13.04;100.00
64292;BME280;50628;51.008;13.658;2024-02-15T09:40:31;100032.66;;;13.13;100.00
64292;BME280;50628;51.008;13.658;2024-02-15T09:45:35;100042.00;;;13.16;100.00
64292;BME280;50628;51.008;13.658;2024-02-15T09:50:39;100047.91;;;13.08;100.00
64292;BME280;50628;51.008;13.658;2024-02-15T09:55:44;100052.75;;;13.13;100.00
64292;BME280;50628;51.008;13.658;2024-02-15T10:00:46;100047.50;;;13.23;100.00
64292;BME280;50628;51.008;13.658;2024-02-15T10:05:49;100050.81;;;13.25;100.00
64292;BME280;50628;51.008;13.658;2024-02-15T10:11:06;100037.06;;;13.23;100.00
64292;BME280;50628;51.008;13.658;2024-02-15T10:16:18;100029.69;;;13.37;100.00
64292;BME280;50628;51.008;13.658;2024-02-15T10:21:26;100028.75;;;13.38;100.00
64292;BME280;50628;51.008;13.658;2024-02-15T10:26:31;100034.97;;;13.57;100.00
64292;BME280;50628;51.008;13.658;2024-02-15T10:31:33;100033.19;;;13.57;100.00
64292;BME280;50628;51.008;13.658;2024-02-15T10:36:35;100042.94;;;13.46;100.00
64292;BME280;50628;51.008;13.658;2024-02-15T10:41:39;100034.94;;;13.37;100.00
64292;BME280;50628;51.008;13.658;2024-02-15T10:46:43;100029.88;;;13.46;100.00
64292;BME280;50628;51.008;13.658;2024-02-15T10:51:50;100026.00;;;13.40;100.00
64292;BME280;50628;51.008;13.658;2024-02-15T10:56:59;100020.06;;;13.38;100.00
64292;BME280;50628;51.008;13.658;2024-02-15T11:02:26;100019.91;;;13.30;100.00
64292;BME280;50628;51.008;13.658;2024-02-15T11:07:31;100025.72;;;13.33;100.00
64292;BME280;50628;51.008;13.658;2024-02-15T11:12:34;100015.81;;;13.37;100.00
64292;BME280;50628;51.008;13.658;2024-02-15T11:17:47;100016.66;;;13.47;100.00
64292;BME280;50628;51.008;13.658;2024-02-15T11:22:56;100015.00;;;13.36;100.00
64292;BME280;50628;51.008;13.658;2024-02-15T11:28:34;100019.53;;;13.34;100.00
64292;BME280;50628;51.008;13.658;2024-02-15T11:33:37;100023.53;;;13.38;100.00
64292;BME280;50628;51.008;13.658;2024-02-15T11:38:40;100001.94;;;13.75;100.00
64292;BME280;50628;51.008;13.658;2024-02-15T11:49:41;99994.78;;;13.87;100.00
64292;BME280;50628;51.008;13.658;2024-02-15T11:54:47;99992.84;;;13.99;100.00
64292;BME280;50628;51.008;13.658;2024-02-15T11:59:49;99989.13;;;13.92;100.00
64292;BME280;50628;51.008;13.658;2024-02-15T12:05:09;99980.41;;;14.11;100.00
64292;BME280;50628;51.008;13.658;2024-02-15T12:10:28;99982.66;;;13.96;100.00
64292;BME280;50628;51.008;13.658;2024-02-15T12:15:57;99984.44;;;13.85;100.00
64292;BME280;50628;51.008;13.658;2024-02-15T12:21:21;99979.66;;;13.81;100.00
64292;BME280;50628;51.008;13.658;2024-02-15T12:26:26;99972.34;;;13.84;100.00
64292;BME280;50628;51.008;13.658;2024-02-15T12:31:29;99969.56;;;13.96;100.00
64292;BME280;50628;51.008;13.658;2024-02-15T12:36:32;99963.91;;;14.00;100.00
64292;BME280;50628;51.008;13.658;2024-02-15T12:41:34;99955.94;;;13.92;100.00
64292;BME280;50628;51.008;13.658;2024-02-15T12:46:36;99953.19;;;13.94;100.00
64292;BME280;50628;51.008;13.658;2024-02-15T12:51:41;99961.19;;;13.92;100.00
64292;BME280;50628;51.008;13.658;2024-02-15T12:57:07;99961.72;;;13.96;100.00
64292;BME280;50628;51.008;13.658;2024-02-15T13:02:09;99952.09;;;13.96;100.00
64292;BME280;50628;51.008;13.658;2024-02-15T13:07:16;99946.78;;;14.16;100.00
64292;BME280;50628;51.008;13.658;2024-02-15T13:12:20;99953.53;;;14.18;100.00
64292;BME280;50628;51.008;13.658;2024-02-15T13:17:21;99950.72;;;14.49;100.00
64292;BME280;50628;51.008;13.658;2024-02-15T13:22:25;99937.06;;;14.55;100.00
64292;BME280;50628;51.008;13.658;2024-02-15T13:27:27;99940.97;;;14.69;100.00
64292;BME280;50628;51.008;13.658;2024-02-15T13:32:28;99940.16;;;14.68;100.00
64292;BME280;50628;51.008;13.658;2024-02-15T13:37:32;99939.09;;;14.61;100.00
64292;BME280;50628;51.008;13.658;2024-02-15T13:42:33;99933.31;;;14.58;100.00
64292;BME280;50628;51.008;13.658;2024-02-15T13:47:35;99926.84;;;14.52;100.00
64292;BME280;50628;51.008;13.658;2024-02-15T13:52:39;99927.09;;;14.59;100.00
64292;BME280;50628;51.008;13.658;2024-02-15T13:57:43;99921.44;;;14.63;100.00
64292;BME280;50628;51.008;13.658;2024-02-15T14:02:45;99921.47;;;14.81;100.00
64292;BME280;50628;51.008;13.658;2024-02-15T14:07:49;99918.84;;;14.81;100.00
64292;BME280;50628;51.008;13.658;2024-02-15T14:12:53;99921.03;;;14.86;100.00
64292;BME280;50628;51.008;13.658;2024-02-15T14:17:58;99923.97;;;14.83;100.00
64292;BME280;50628;51.008;13.658;2024-02-15T14:23:03;99909.16;;;14.64;100.00
64292;BME280;50628;51.008;13.658;2024-02-15T14:28:06;99914.50;;;14.72;100.00
64292;BME280;50628;51.008;13.658;2024-02-15T14:33:08;99916.22;;;14.81;100.00
64292;BME280;50628;51.008;13.658;2024-02-15T14:38:13;99918.72;;;14.83;100.00
64292;BME280;50628;51.008;13.658;2024-02-15T14:43:17;99910.25;;;14.89;100.00
64292;BME280;50628;51.008;13.658;2024-02-15T14:48:21;99904.38;;;14.87;100.00
64292;BME280;50628;51.008;13.658;2024-02-15T14:53:29;99914.84;;;14.87;100.00
64292;BME280;50628;51.008;13.658;2024-02-15T14:58:32;99898.50;;;14.75;100.00
64292;BME280;50628;51.008;13.658;2024-02-15T15:03:34;99896.56;;;14.77;100.00
64292;BME280;50628;51.008;13.658;2024-02-15T15:08:39;99897.38;;;14.78;100.00
64292;BME280;50628;51.008;13.658;2024-02-15T15:13:58;99891.84;;;14.81;100.00
64292;BME280;50628;51.008;13.658;2024-02-15T15:19:00;99899.00;;;14.79;100.00
64292;BME280;50628;51.008;13.658;2024-02-15T15:24:04;99910.91;;;14.73;100.00
64292;BME280;50628;51.008;13.658;2024-02-15T15:47:41;99886.78;;;14.42;100.00
64292;BME280;50628;51.008;13.658;2024-02-15T15:52:46;99890.13;;;14.34;100.00
64292;BME280;50628;51.008;13.658;2024-02-15T15:57:48;99885.75;;;14.25;100.00
64292;BME280;50628;51.008;13.658;2024-02-15T16:02:51;99877.69;;;14.09;100.00
64292;BME280;50628;51.008;13.658;2024-02-15T16:07:56;99872.34;;;13.91;100.00
64292;BME280;50628;51.008;13.658;2024-02-15T16:12:58;99877.41;;;14.02;100.00
64292;BME280;50628;51.008;13.658;2024-02-15T16:18:03;99882.97;;;13.89;100.00
64292;BME280;50628;51.008;13.658;2024-02-15T16:23:06;99876.78;;;13.80;100.00
64292;BME280;50628;51.008;13.658;2024-02-15T16:28:08;99889.88;;;13.71;100.00
64292;BME280;50628;51.008;13.658;2024-02-15T16:33:11;99887.94;;;13.63;100.00
64292;BME280;50628;51.008;13.658;2024-02-15T16:38:13;99892.66;;;13.50;100.00
64292;BME280;50628;51.008;13.658;2024-02-15T16:43:16;99908.22;;;13.32;100.00
64292;BME280;50628;51.008;13.658;2024-02-15T16:48:19;99892.34;;;13.24;100.00
64292;BME280;50628;51.008;13.658;2024-02-15T16:53:21;99895.66;;;13.16;100.00
64292;BME280;50628;51.008;13.658;2024-02-15T16:58:24;99898.38;;;13.05;100.00
64292;BME280;50628;51.008;13.658;2024-02-15T17:03:27;99898.13;;;12.98;100.00
64292;BME280;50628;51.008;13.658;2024-02-15T17:08:29;99894.50;;;12.89;100.00
64292;BME280;50628;51.008;13.658;2024-02-15T17:13:31;99900.72;;;12.88;100.00
64292;BME280;50628;51.008;13.658;2024-02-15T17:18:34;99906.72;;;12.79;100.00
64292;BME280;50628;51.008;13.658;2024-02-15T17:23:37;99903.53;;;12.66;100.00
64292;BME280;50628;51.008;13.658;2024-02-15T17:28:43;99912.59;;;12.62;100.00
64292;BME280;50628;51.008;13.658;2024-02-15T17:33:47;99912.69;;;12.50;100.00
64292;BME280;50628;51.008;13.658;2024-02-15T17:38:49;99911.84;;;12.40;100.00
64292;BME280;50628;51.008;13.658;2024-02-15T17:43:51;99912.34;;;12.34;100.00
64292;BME280;50628;51.008;13.658;2024-02-15T17:49:00;99913.69;;;12.28;100.00
64292;BME280;50628;51.008;13.658;2024-02-15T17:54:02;99906.78;;;12.18;100.00
64292;BME280;50628;51.008;13.658;2024-02-15T17:59:04;99910.22;;;12.18;100.00
64292;BME280;50628;51.008;13.658;2024-02-15T18:04:09;99907.44;;;12.10;100.00
64292;BME280;50628;51.008;13.658;2024-02-15T18:09:11;99903.31;;;12.07;100.00
64292;BME280;50628;51.008;13.658;2024-02-15T18:14:13;99901.50;;;12.08;100.00
64292;BME280;50628;51.008;13.658;2024-02-15T18:19:18;99898.84;;;11.98;100.00
64292;BME280;50628;51.008;13.658;2024-02-15T18:24:22;99902.09;;;11.90;100.00
64292;BME280;50628;51.008;13.658;2024-02-15T18:29:24;99893.56;;;11.88;100.00
64292;BME280;50628;51.008;13.658;2024-02-15T18:34:28;99898.56;;;11.80;100.00
64292;BME280;50628;51.008;13.658;2024-02-15T18:39:32;99904.88;;;11.78;100.00
64292;BME280;50628;51.008;13.658;2024-02-15T19:03:41;99898.06;;;11.01;100.00
64292;BME280;50628;51.008;13.658;2024-02-15T19:08:43;99880.28;;;10.74;100.00
64292;BME280;50628;51.008;13.658;2024-02-15T19:13:44;99880.78;;;10.56;100.00
64292;BME280;50628;51.008;13.658;2024-02-15T19:18:48;99884.19;;;10.57;100.00
64292;BME280;50628;51.008;13.658;2024-02-15T19:23:49;99888.59;;;10.56;100.00
64292;BME280;50628;51.008;13.658;2024-02-15T19:28:51;99871.28;;;10.55;100.00
64292;BME280;50628;51.008;13.658;2024-02-15T19:33:54;99884.09;;;10.58;100.00
64292;BME280;50628;51.008;13.658;2024-02-15T19:38:57;99886.31;;;10.40;100.00
64292;BME280;50628;51.008;13.658;2024-02-15T19:43:58;99875.34;;;10.37;100.00
64292;BME280;50628;51.008;13.658;2024-02-15T19:49:02;99867.38;;;10.05;100.00
64292;BME280;50628;51.008;13.658;2024-02-15T19:54:04;99883.22;;;9.90;100.00
64292;BME280;50628;51.008;13.658;2024-02-15T19:59:06;99893.00;;;9.87;100.00
64292;BME280;50628;51.008;13.658;2024-02-15T20:04:11;99902.91;;;9.82;100.00
64292;BME280;50628;51.008;13.658;2024-02-15T20:09:13;99901.53;;;9.53;100.00
64292;BME280;50628;51.008;13.658;2024-02-15T20:14:15;99900.50;;;9.32;100.00
64292;BME280;50628;51.008;13.658;2024-02-15T20:19:20;99909.25;;;9.31;100.00
64292;BME280;50628;51.008;13.658;2024-02-15T20:24:22;99900.72;;;9.29;100.00
64292;BME280;50628;51.008;13.658;2024-02-15T20:29:24;99902.59;;;9.27;100.00
64292;BME280;50628;51.008;13.658;2024-02-15T20:34:30;99906.19;;;9.37;100.00
64292;BME280;50628;51.008;13.658;2024-02-15T20:39:32;99899.81;;;9.30;100.00
64292;BME280;50628;51.008;13.658;2024-02-15T20:44:34;99898.75;;;9.08;100.00
64292;BME280;50628;51.008;13.658;2024-02-15T20:49:39;99896.66;;;8.77;100.00
64292;BME280;50628;51.008;13.658;2024-02-15T20:54:40;99899.31;;;8.64;100.00
64292;BME280;50628;51.008;13.658;2024-02-15T20:59:44;99897.75;;;8.61;100.00
64292;BME280;50628;51.008;13.658;2024-02-15T21:04:47;99889.69;;;8.53;100.00
64292;BME280;50628;51.008;13.658;2024-02-15T21:09:49;99897.06;;;8.59;100.00
64292;BME280;50628;51.008;13.658;2024-02-15T21:14:51;99873.53;;;8.74;100.00
64292;BME280;50628;51.008;13.658;2024-02-15T21:19:54;99862.28;;;8.62;100.00
64292;BME280;50628;51.008;13.658;2024-02-15T21:24:56;99858.13;;;8.47;100.00
64292;BME280;50628;51.008;13.658;2024-02-15T21:30:00;99865.03;;;8.22;100.00
64292;BME280;50628;51.008;13.658;2024-02-15T21:35:07;99857.84;;;8.26;100.00
64292;BME280;50628;51.008;13.658;2024-02-15T21:40:09;99853.72;;;8.10;100.00
64292;BME280;50628;51.008;13.658;2024-02-15T21:45:12;99845.22;;;7.95;100.00
64292;BME280;50628;51.008;13.658;2024-02-15T21:50:16;99842.25;;;7.89;100.00
64292;BME280;50628;51.008;13.658;2024-02-15T21:55:18;99839.66;;;7.89;100.00
64292;BME280;50628;51.008;13.658;2024-02-15T22:00:20;99839.53;;;7.77;100.00
64292;BME280;50628;51.008;13.658;2024-02-15T22:05:23;99823.75;;;7.55;100.00
64292;BME280;50628;51.008;13.658;2024-02-15T22:10:25;99811.53;;;7.44;100.00
64292;BME280;50628;51.008;13.658;2024-02-15T22:15:27;99803.63;;;7.46;100.00
64292;BME280;50628;51.008;13.658;2024-02-15T22:20:30;99806.94;;;7.35;100.00
64292;BME280;50628;51.008;13.658;2024-02-15T22:25:32;99815.03;;;7.30;100.00
64292;BME280;50628;51.008;13.658;2024-02-15T22:30:34;99829.22;;;7.37;100.00
64292;BME280;50628;51.008;13.658;2024-02-15T22:35:37;99840.19;;;7.28;100.00
64292;BME280;50628;51.008;13.658;2024-02-15T22:40:39;99836.97;;;7.25;100.00
64292;BME280;50628;51.008;13.658;2024-02-15T22:45:43;99828.97;;;7.15;100.00
64292;BME280;50628;51.008;13.658;2024-02-15T22:50:46;99826.03;;;6.94;100.00
64292;BME280;50628;51.008;13.658;2024-02-15T22:55:48;99824.03;;;6.98;100.00
64292;BME280;50628;51.008;13.658;2024-02-15T23:00:52;99819.59;;;7.00;100.00
64292;BME280;50628;51.008;13.658;2024-02-15T23:05:55;99818.94;;;6.83;100.00
64292;BME280;50628;51.008;13.658;2024-02-15T23:10:57;99822.56;;;6.81;100.00
64292;BME280;50628;51.008;13.658;2024-02-15T23:15:59;99818.78;;;6.72;100.00
64292;BME280;50628;51.008;13.658;2024-02-15T23:21:06;99824.13;;;6.83;100.00
64292;BME280;50628;51.008;13.658;2024-02-15T23:26:08;99812.59;;;6.75;100.00
64292;BME280;50628;51.008;13.658;2024-02-15T23:31:10;99826.81;;;6.67;100.00
64292;BME280;50628;51.008;13.658;2024-02-15T23:36:14;99814.59;;;6.57;100.00
64292;BME280;50628;51.008;13.658;2024-02-15T23:41:33;99815.88;;;6.49;100.00
64292;BME280;50628;51.008;13.658;2024-02-15T23:46:35;99815.94;;;6.35;100.00
64292;BME280;50628;51.008;13.658;2024-02-15T23:51:38;99814.25;;;6.34;100.00
64292;BME280;50628;51.008;13.658;2024-02-15T23:56:41;99817.25;;;6.14;100.00
